• Join FlightAware (Why Join?)
  • Login
  • US Flag 
09:54PM EST


 

Airport Tracker/Info


-or-


 

Live Flight TrackerFlight Track Log ✈ N5912M ✈ 20-Aug-2014 ✈ F45 - KFPR

Flight Track Log - Related Links

Times and Time Zones

All times are in EDT time to prevent confusion due to time zone crossing. See the N5912M flight status page for this flight to view local times or setup timezone preferences in your user account.

Time Position Orientation Groundspeed Altitude Reporting Facility
EDT Latitude Longitude Course Direction KTS MPH feet Rate Location/Type
03:11PM 26.8739 -80.1178 354° North 123 142 4,100  Level Miami Center
03:12PM 26.9111 -80.1106 10° North 150 173 4,000 -60 Descending Miami Center
03:13PM 26.9514 -80.1178 351° North 144 166 4,000  Level Miami Center
03:14PM 26.9850 -80.1431 326° Northwest 149 171 4,100  Climbing Miami Center
03:15PM 27.0355 -80.2558 354° North  Level FlightAware Approximate
03:15PM 27.0189 -80.1778 318° Northwest 148 170 4,100  Level Miami Center
03:16PM 27.0697 -80.2596 354° North  Level FlightAware Approximate
03:16PM 27.0508 -80.2039 324° Northwest 148 170 4,100  Level Miami Center
03:17PM 27.0850 -80.2336 322° Northwest 148 170 4,000 -60 Descending Miami Center
03:18PM 27.1192 -80.2647 321° Northwest 149 171 4,000  Level Miami Center
03:19PM 27.1581 -80.2825 338° Northwest 148 170 4,000  Level Miami Center
03:20PM 27.1953 -80.3042 333° Northwest 147 169 4,000  Level Miami Center
03:21PM 27.2353 -80.3131 349° North 148 170 4,000  Level Miami Center
03:22PM 27.2775 -80.3200 352° North 148 170 4,000  Level Miami Center
03:23PM 27.3194 -80.3319 346° North 149 171 4,000  Level Miami Center
03:24PM 27.3608 -80.3433 346° North 149 171 4,100  Climbing Miami Center
03:25PM 27.3992 -80.3556 344° North 148 170 4,000 -60 Descending Miami Center
03:26PM 27.4233 -80.3947 305° West 150 173 4,000 -300 Level Miami Center
03:27PM 27.4472 -80.4397 301° West 156 180 3,500 -600 Descending Miami Center
03:28PM 27.4683 -80.4819 299° West 151 174 2,800 -660 Descending Miami Center
03:29PM 27.4625 -80.5314 262° West 153 176 2,200 -480 Descending Miami Center
03:30PM 27.4567 -80.5736 261° West 144 166 1,900 -120 Descending Miami Center
03:31PM 27.4811 -80.5817 344° North 105 121 2,000  Climbing Miami Center
03:32PM 27.4972 -80.5567 54° Northeast 114 131 2,000  Level Miami Center
03:33PM 27.4756 -80.5539 174° South 120 138 2,100  Climbing Miami Center
03:34PM 27.4900 -80.5656 324° Northwest 108 124 2,000  Descending Miami Center
03:35PM 27.4975 -80.5353 74° East 105 121 2,100 -120 Climbing Miami Center
03:36PM 27.4981 -80.4994 89° East 106 122 1,800 -300 Descending Miami Center
03:37PM 27.4969 -80.4644 92° East 110 127 1,500 -480 Descending Miami Center
03:38PM 27.4978 -80.4347 88° East 96 110 900 -540 Descending Miami Center
03:40PM 27.4983 -80.4094 89° East 81 93 500 -420 Descending Miami Center
03:41PM 27.4975 -80.3850 92° East 79 91 100  Descending Miami Center
03:42PM 27.4953 -80.3522 94° East 89 102 600 420 Climbing Miami Center
03:43PM 27.4894 -80.3242 103° East 89 102 1,100 540 Climbing Miami Center
03:44PM 27.4839 -80.2919 101° East 106 122 1,800 660 Climbing Miami Center